sensor_id;sensor_type;location;lat;lon;timestamp;P1;durP1;ratioP1;P2;durP2;ratioP2
31660;SDS011;18267;52.234;7.444;2023-06-22T00:00:47;14.40;;;9.77;;
31660;SDS011;18267;52.234;7.444;2023-06-22T00:03:13;15.30;;;9.90;;
31660;SDS011;18267;52.234;7.444;2023-06-22T00:05:39;14.40;;;10.68;;
31660;SDS011;18267;52.234;7.444;2023-06-22T00:08:04;15.45;;;10.02;;
31660;SDS011;18267;52.234;7.444;2023-06-22T00:10:30;15.02;;;11.10;;
31660;SDS011;18267;52.234;7.444;2023-06-22T00:12:56;14.73;;;9.90;;
31660;SDS011;18267;52.234;7.444;2023-06-22T00:15:21;11.82;;;9.35;;
31660;SDS011;18267;52.234;7.444;2023-06-22T00:17:47;11.65;;;9.80;;
31660;SDS011;18267;52.234;7.444;2023-06-22T00:20:12;14.45;;;9.68;;
31660;SDS011;18267;52.234;7.444;2023-06-22T00:22:39;16.70;;;10.45;;
31660;SDS011;18267;52.234;7.444;2023-06-22T00:25:08;14.48;;;10.77;;
31660;SDS011;18267;52.234;7.444;2023-06-22T00:27:34;13.02;;;10.27;;
31660;SDS011;18267;52.234;7.444;2023-06-22T00:30:00;15.35;;;10.38;;
31660;SDS011;18267;52.234;7.444;2023-06-22T00:32:26;15.68;;;10.85;;
31660;SDS011;18267;52.234;7.444;2023-06-22T00:34:51;14.93;;;11.45;;
31660;SDS011;18267;52.234;7.444;2023-06-22T00:37:17;16.00;;;10.70;;
31660;SDS011;18267;52.234;7.444;2023-06-22T00:39:43;15.02;;;10.95;;
31660;SDS011;18267;52.234;7.444;2023-06-22T00:42:09;17.88;;;10.85;;
31660;SDS011;18267;52.234;7.444;2023-06-22T00:44:35;14.75;;;10.18;;
31660;SDS011;18267;52.234;7.444;2023-06-22T00:47:01;16.42;;;11.60;;
31660;SDS011;18267;52.234;7.444;2023-06-22T00:49:27;15.93;;;11.32;;
31660;SDS011;18267;52.234;7.444;2023-06-22T00:51:53;19.80;;;11.48;;
31660;SDS011;18267;52.234;7.444;2023-06-22T00:54:19;14.80;;;10.57;;
31660;SDS011;18267;52.234;7.444;2023-06-22T00:56:49;16.45;;;12.25;;
31660;SDS011;18267;52.234;7.444;2023-06-22T00:59:19;16.15;;;11.25;;
31660;SDS011;18267;52.234;7.444;2023-06-22T01:01:45;15.15;;;11.93;;
31660;SDS011;18267;52.234;7.444;2023-06-22T01:04:11;17.05;;;11.82;;
31660;SDS011;18267;52.234;7.444;2023-06-22T01:06:38;20.83;;;11.07;;
31660;SDS011;18267;52.234;7.444;2023-06-22T01:09:19;17.35;;;11.15;;
31660;SDS011;18267;52.234;7.444;2023-06-22T01:11:53;19.40;;;11.45;;
31660;SDS011;18267;52.234;7.444;2023-06-22T01:14:24;20.00;;;12.32;;
31660;SDS011;18267;52.234;7.444;2023-06-22T01:16:58;18.25;;;11.40;;
31660;SDS011;18267;52.234;7.444;2023-06-22T01:19:35;15.27;;;11.48;;
31660;SDS011;18267;52.234;7.444;2023-06-22T01:22:08;21.45;;;13.13;;
31660;SDS011;18267;52.234;7.444;2023-06-22T01:27:32;16.95;;;11.30;;
31660;SDS011;18267;52.234;7.444;2023-06-22T01:29:58;23.15;;;12.82;;
31660;SDS011;18267;52.234;7.444;2023-06-22T01:32:28;16.67;;;12.40;;
31660;SDS011;18267;52.234;7.444;2023-06-22T01:34:57;18.17;;;11.82;;
31660;SDS011;18267;52.234;7.444;2023-06-22T01:37:24;18.45;;;11.75;;
31660;SDS011;18267;52.234;7.444;2023-06-22T01:39:51;24.35;;;13.20;;
31660;SDS011;18267;52.234;7.444;2023-06-22T01:42:17;24.33;;;12.07;;
31660;SDS011;18267;52.234;7.444;2023-06-22T01:44:43;22.70;;;13.13;;
31660;SDS011;18267;52.234;7.444;2023-06-22T01:47:09;16.85;;;13.23;;
31660;SDS011;18267;52.234;7.444;2023-06-22T01:49:35;19.77;;;12.80;;
31660;SDS011;18267;52.234;7.444;2023-06-22T01:52:01;24.40;;;12.75;;
31660;SDS011;18267;52.234;7.444;2023-06-22T01:54:29;16.48;;;12.55;;
31660;SDS011;18267;52.234;7.444;2023-06-22T01:56:54;26.15;;;12.98;;
31660;SDS011;18267;52.234;7.444;2023-06-22T01:59:23;18.48;;;12.85;;
31660;SDS011;18267;52.234;7.444;2023-06-22T02:01:57;19.73;;;13.05;;
31660;SDS011;18267;52.234;7.444;2023-06-22T02:04:34;17.83;;;12.27;;
31660;SDS011;18267;52.234;7.444;2023-06-22T02:07:07;16.48;;;12.38;;
31660;SDS011;18267;52.234;7.444;2023-06-22T02:09:37;18.48;;;13.82;;
31660;SDS011;18267;52.234;7.444;2023-06-22T02:12:05;21.75;;;12.30;;
31660;SDS011;18267;52.234;7.444;2023-06-22T02:14:32;24.05;;;14.55;;
31660;SDS011;18267;52.234;7.444;2023-06-22T02:16:59;17.50;;;13.15;;
31660;SDS011;18267;52.234;7.444;2023-06-22T02:19:25;25.08;;;14.70;;
31660;SDS011;18267;52.234;7.444;2023-06-22T02:21:52;17.10;;;12.60;;
31660;SDS011;18267;52.234;7.444;2023-06-22T02:24:17;24.17;;;13.30;;
31660;SDS011;18267;52.234;7.444;2023-06-22T02:26:43;20.60;;;14.02;;
31660;SDS011;18267;52.234;7.444;2023-06-22T02:29:10;22.25;;;13.25;;
31660;SDS011;18267;52.234;7.444;2023-06-22T02:31:36;21.00;;;12.73;;
31660;SDS011;18267;52.234;7.444;2023-06-22T02:34:01;21.42;;;14.02;;
31660;SDS011;18267;52.234;7.444;2023-06-22T02:36:27;17.63;;;13.20;;
31660;SDS011;18267;52.234;7.444;2023-06-22T02:38:55;20.17;;;13.45;;
31660;SDS011;18267;52.234;7.444;2023-06-22T02:41:25;17.92;;;13.55;;
31660;SDS011;18267;52.234;7.444;2023-06-22T02:43:51;20.60;;;13.68;;
31660;SDS011;18267;52.234;7.444;2023-06-22T02:46:17;15.98;;;12.27;;
31660;SDS011;18267;52.234;7.444;2023-06-22T02:48:43;16.10;;;12.73;;
31660;SDS011;18267;52.234;7.444;2023-06-22T02:51:09;17.83;;;13.05;;
31660;SDS011;18267;52.234;7.444;2023-06-22T02:53:34;20.30;;;14.30;;
31660;SDS011;18267;52.234;7.444;2023-06-22T02:56:03;17.63;;;12.93;;
31660;SDS011;18267;52.234;7.444;2023-06-22T02:58:32;20.08;;;13.07;;
31660;SDS011;18267;52.234;7.444;2023-06-22T03:01:03;18.80;;;12.98;;
31660;SDS011;18267;52.234;7.444;2023-06-22T03:03:30;23.60;;;13.65;;
31660;SDS011;18267;52.234;7.444;2023-06-22T03:05:55;23.17;;;13.77;;
31660;SDS011;18267;52.234;7.444;2023-06-22T03:08:21;17.85;;;13.48;;
31660;SDS011;18267;52.234;7.444;2023-06-22T03:10:46;26.25;;;14.85;;
31660;SDS011;18267;52.234;7.444;2023-06-22T03:13:12;23.50;;;15.02;;
31660;SDS011;18267;52.234;7.444;2023-06-22T03:15:37;21.20;;;14.88;;
31660;SDS011;18267;52.234;7.444;2023-06-22T03:18:03;26.30;;;13.23;;
31660;SDS011;18267;52.234;7.444;2023-06-22T03:20:29;29.30;;;13.60;;
31660;SDS011;18267;52.234;7.444;2023-06-22T03:22:58;24.73;;;13.90;;
31660;SDS011;18267;52.234;7.444;2023-06-22T03:25:24;19.45;;;13.57;;
31660;SDS011;18267;52.234;7.444;2023-06-22T03:27:49;18.45;;;13.52;;
31660;SDS011;18267;52.234;7.444;2023-06-22T03:30:15;18.83;;;13.20;;
31660;SDS011;18267;52.234;7.444;2023-06-22T03:32:40;18.67;;;13.05;;
31660;SDS011;18267;52.234;7.444;2023-06-22T03:35:07;20.45;;;13.25;;
31660;SDS011;18267;52.234;7.444;2023-06-22T03:37:33;21.35;;;12.93;;
31660;SDS011;18267;52.234;7.444;2023-06-22T03:39:59;19.15;;;13.13;;
31660;SDS011;18267;52.234;7.444;2023-06-22T03:42:25;18.75;;;13.23;;
31660;SDS011;18267;52.234;7.444;2023-06-22T03:44:51;20.48;;;13.35;;
31660;SDS011;18267;52.234;7.444;2023-06-22T03:47:17;17.48;;;13.15;;
31660;SDS011;18267;52.234;7.444;2023-06-22T03:49:42;22.55;;;13.05;;
31660;SDS011;18267;52.234;7.444;2023-06-22T03:52:08;23.27;;;13.88;;
31660;SDS011;18267;52.234;7.444;2023-06-22T03:54:34;21.27;;;12.95;;
31660;SDS011;18267;52.234;7.444;2023-06-22T03:56:59;15.23;;;11.95;;
31660;SDS011;18267;52.234;7.444;2023-06-22T03:59:25;19.30;;;12.43;;
31660;SDS011;18267;52.234;7.444;2023-06-22T04:01:51;15.15;;;11.30;;
31660;SDS011;18267;52.234;7.444;2023-06-22T04:04:19;20.30;;;13.38;;
31660;SDS011;18267;52.234;7.444;2023-06-22T04:06:45;16.35;;;11.40;;
31660;SDS011;18267;52.234;7.444;2023-06-22T04:09:11;23.50;;;13.93;;
31660;SDS011;18267;52.234;7.444;2023-06-22T04:11:37;19.33;;;12.18;;
31660;SDS011;18267;52.234;7.444;2023-06-22T04:14:02;18.33;;;12.00;;
31660;SDS011;18267;52.234;7.444;2023-06-22T04:16:28;21.15;;;12.77;;
31660;SDS011;18267;52.234;7.444;2023-06-22T04:18:53;17.75;;;11.95;;
31660;SDS011;18267;52.234;7.444;2023-06-22T04:21:19;20.23;;;13.48;;
31660;SDS011;18267;52.234;7.444;2023-06-22T04:23:45;19.05;;;11.73;;
31660;SDS011;18267;52.234;7.444;2023-06-22T04:26:11;17.98;;;12.38;;
31660;SDS011;18267;52.234;7.444;2023-06-22T04:28:37;18.65;;;12.57;;
31660;SDS011;18267;52.234;7.444;2023-06-22T04:31:02;19.95;;;13.50;;
31660;SDS011;18267;52.234;7.444;2023-06-22T04:33:28;18.10;;;13.10;;
31660;SDS011;18267;52.234;7.444;2023-06-22T04:35:54;27.27;;;13.35;;
31660;SDS011;18267;52.234;7.444;2023-06-22T04:38:22;15.98;;;12.07;;
31660;SDS011;18267;52.234;7.444;2023-06-22T04:40:48;20.38;;;12.32;;
31660;SDS011;18267;52.234;7.444;2023-06-22T04:43:13;19.25;;;12.82;;
31660;SDS011;18267;52.234;7.444;2023-06-22T04:45:39;17.90;;;11.90;;
31660;SDS011;18267;52.234;7.444;2023-06-22T04:48:05;18.50;;;12.60;;
31660;SDS011;18267;52.234;7.444;2023-06-22T04:50:30;19.17;;;12.25;;
31660;SDS011;18267;52.234;7.444;2023-06-22T04:52:56;19.55;;;12.45;;
31660;SDS011;18267;52.234;7.444;2023-06-22T04:55:21;19.88;;;12.75;;
31660;SDS011;18267;52.234;7.444;2023-06-22T04:57:47;20.20;;;12.40;;
31660;SDS011;18267;52.234;7.444;2023-06-22T05:00:16;18.27;;;11.77;;
31660;SDS011;18267;52.234;7.444;2023-06-22T05:02:44;17.95;;;12.18;;
31660;SDS011;18267;52.234;7.444;2023-06-22T05:05:11;21.50;;;12.40;;
31660;SDS011;18267;52.234;7.444;2023-06-22T05:07:49;18.05;;;12.00;;
31660;SDS011;18267;52.234;7.444;2023-06-22T05:10:17;15.32;;;11.52;;
31660;SDS011;18267;52.234;7.444;2023-06-22T05:12:44;20.70;;;10.88;;
31660;SDS011;18267;52.234;7.444;2023-06-22T05:15:09;16.65;;;11.52;;
31660;SDS011;18267;52.234;7.444;2023-06-22T05:17:35;15.32;;;10.65;;
31660;SDS011;18267;52.234;7.444;2023-06-22T05:20:01;18.45;;;11.05;;
31660;SDS011;18267;52.234;7.444;2023-06-22T05:22:31;14.07;;;9.88;;
31660;SDS011;18267;52.234;7.444;2023-06-22T05:24:56;17.80;;;11.15;;
31660;SDS011;18267;52.234;7.444;2023-06-22T05:27:22;18.40;;;11.38;;
31660;SDS011;18267;52.234;7.444;2023-06-22T05:29:47;16.52;;;11.48;;
31660;SDS011;18267;52.234;7.444;2023-06-22T05:32:13;18.25;;;10.60;;
31660;SDS011;18267;52.234;7.444;2023-06-22T05:34:38;16.75;;;10.55;;
31660;SDS011;18267;52.234;7.444;2023-06-22T05:37:05;14.07;;;9.43;;
31660;SDS011;18267;52.234;7.444;2023-06-22T05:39:31;16.80;;;10.23;;
31660;SDS011;18267;52.234;7.444;2023-06-22T05:41:57;17.92;;;11.02;;
31660;SDS011;18267;52.234;7.444;2023-06-22T05:44:22;14.27;;;9.38;;
31660;SDS011;18267;52.234;7.444;2023-06-22T05:46:48;17.80;;;10.50;;
31660;SDS011;18267;52.234;7.444;2023-06-22T05:49:14;20.23;;;10.75;;
31660;SDS011;18267;52.234;7.444;2023-06-22T05:51:40;14.35;;;10.65;;
31660;SDS011;18267;52.234;7.444;2023-06-22T05:54:06;16.13;;;10.38;;
31660;SDS011;18267;52.234;7.444;2023-06-22T05:56:33;14.35;;;9.80;;
31660;SDS011;18267;52.234;7.444;2023-06-22T05:58:58;17.88;;;11.25;;
31660;SDS011;18267;52.234;7.444;2023-06-22T06:01:24;14.45;;;9.75;;
31660;SDS011;18267;52.234;7.444;2023-06-22T06:03:51;12.65;;;9.38;;
31660;SDS011;18267;52.234;7.444;2023-06-22T06:06:17;13.23;;;9.43;;
31660;SDS011;18267;52.234;7.444;2023-06-22T06:08:46;14.05;;;9.82;;
31660;SDS011;18267;52.234;7.444;2023-06-22T06:11:11;18.52;;;10.43;;
31660;SDS011;18267;52.234;7.444;2023-06-22T06:13:37;15.85;;;9.48;;
31660;SDS011;18267;52.234;7.444;2023-06-22T06:16:02;14.73;;;10.15;;
31660;SDS011;18267;52.234;7.444;2023-06-22T06:18:28;15.65;;;9.38;;
31660;SDS011;18267;52.234;7.444;2023-06-22T06:20:54;11.95;;;7.95;;
31660;SDS011;18267;52.234;7.444;2023-06-22T06:23:19;11.70;;;8.98;;
31660;SDS011;18267;52.234;7.444;2023-06-22T06:25:45;14.68;;;9.40;;
31660;SDS011;18267;52.234;7.444;2023-06-22T06:28:10;11.45;;;8.48;;
31660;SDS011;18267;52.234;7.444;2023-06-22T06:30:36;15.20;;;9.15;;
31660;SDS011;18267;52.234;7.444;2023-06-22T06:33:02;11.90;;;8.50;;
31660;SDS011;18267;52.234;7.444;2023-06-22T06:35:27;16.33;;;9.07;;
31660;SDS011;18267;52.234;7.444;2023-06-22T06:37:53;12.75;;;9.18;;
31660;SDS011;18267;52.234;7.444;2023-06-22T06:40:19;12.63;;;8.75;;
31660;SDS011;18267;52.234;7.444;2023-06-22T06:42:48;12.07;;;8.88;;
31660;SDS011;18267;52.234;7.444;2023-06-22T06:45:18;12.98;;;8.70;;
31660;SDS011;18267;52.234;7.444;2023-06-22T06:47:44;16.25;;;8.48;;
31660;SDS011;18267;52.234;7.444;2023-06-22T06:50:10;11.05;;;8.90;;
31660;SDS011;18267;52.234;7.444;2023-06-22T06:52:36;12.65;;;8.70;;
31660;SDS011;18267;52.234;7.444;2023-06-22T06:55:02;10.68;;;8.50;;
31660;SDS011;18267;52.234;7.444;2023-06-22T06:57:33;12.82;;;9.20;;
31660;SDS011;18267;52.234;7.444;2023-06-22T06:59:59;13.75;;;9.10;;
31660;SDS011;18267;52.234;7.444;2023-06-22T07:02:25;14.35;;;9.43;;
31660;SDS011;18267;52.234;7.444;2023-06-22T07:04:52;13.35;;;9.38;;
31660;SDS011;18267;52.234;7.444;2023-06-22T07:07:20;13.63;;;8.85;;
31660;SDS011;18267;52.234;7.444;2023-06-22T07:09:46;16.52;;;9.05;;
31660;SDS011;18267;52.234;7.444;2023-06-22T07:12:11;15.20;;;9.35;;
31660;SDS011;18267;52.234;7.444;2023-06-22T07:14:37;18.17;;;9.85;;
31660;SDS011;18267;52.234;7.444;2023-06-22T07:17:03;16.52;;;10.82;;
31660;SDS011;18267;52.234;7.444;2023-06-22T07:19:28;14.88;;;9.80;;
31660;SDS011;18267;52.234;7.444;2023-06-22T07:21:55;13.75;;;9.85;;
31660;SDS011;18267;52.234;7.444;2023-06-22T07:24:21;16.42;;;10.27;;
31660;SDS011;18267;52.234;7.444;2023-06-22T07:26:49;14.25;;;9.90;;
31660;SDS011;18267;52.234;7.444;2023-06-22T07:29:18;15.45;;;10.35;;
31660;SDS011;18267;52.234;7.444;2023-06-22T07:31:46;18.98;;;12.25;;
31660;SDS011;18267;52.234;7.444;2023-06-22T07:34:12;17.70;;;11.55;;
31660;SDS011;18267;52.234;7.444;2023-06-22T07:36:37;15.77;;;10.52;;
31660;SDS011;18267;52.234;7.444;2023-06-22T07:39:03;15.23;;;10.65;;
31660;SDS011;18267;52.234;7.444;2023-06-22T07:41:29;19.30;;;10.88;;
31660;SDS011;18267;52.234;7.444;2023-06-22T07:43:55;15.88;;;11.60;;
31660;SDS011;18267;52.234;7.444;2023-06-22T07:46:20;13.88;;;10.70;;
31660;SDS011;18267;52.234;7.444;2023-06-22T07:48:46;14.32;;;11.50;;
31660;SDS011;18267;52.234;7.444;2023-06-22T07:51:12;15.00;;;11.63;;
31660;SDS011;18267;52.234;7.444;2023-06-22T07:53:38;22.80;;;11.20;;
31660;SDS011;18267;52.234;7.444;2023-06-22T07:56:05;14.23;;;10.07;;
31660;SDS011;18267;52.234;7.444;2023-06-22T07:58:32;14.10;;;10.32;;
31660;SDS011;18267;52.234;7.444;2023-06-22T08:00:58;18.38;;;11.80;;
31660;SDS011;18267;52.234;7.444;2023-06-22T08:03:24;15.63;;;9.70;;
31660;SDS011;18267;52.234;7.444;2023-06-22T08:05:49;15.93;;;11.70;;
31660;SDS011;18267;52.234;7.444;2023-06-22T08:08:15;17.13;;;11.48;;
31660;SDS011;18267;52.234;7.444;2023-06-22T08:10:41;17.23;;;12.13;;
31660;SDS011;18267;52.234;7.444;2023-06-22T08:13:07;16.88;;;10.88;;
31660;SDS011;18267;52.234;7.444;2023-06-22T08:15:33;15.32;;;11.38;;
31660;SDS011;18267;52.234;7.444;2023-06-22T08:17:59;14.63;;;11.18;;
31660;SDS011;18267;52.234;7.444;2023-06-22T08:20:25;13.80;;;10.63;;
31660;SDS011;18267;52.234;7.444;2023-06-22T08:22:51;15.57;;;10.30;;
31660;SDS011;18267;52.234;7.444;2023-06-22T08:25:19;14.15;;;10.20;;
31660;SDS011;18267;52.234;7.444;2023-06-22T08:27:46;16.80;;;10.48;;
31660;SDS011;18267;52.234;7.444;2023-06-22T08:30:13;14.88;;;10.25;;
31660;SDS011;18267;52.234;7.444;2023-06-22T08:32:39;18.77;;;10.68;;
31660;SDS011;18267;52.234;7.444;2023-06-22T08:35:05;11.18;;;9.40;;
31660;SDS011;18267;52.234;7.444;2023-06-22T08:37:34;14.32;;;10.15;;
31660;SDS011;18267;52.234;7.444;2023-06-22T08:40:01;15.45;;;11.10;;
31660;SDS011;18267;52.234;7.444;2023-06-22T08:42:39;17.17;;;11.45;;
31660;SDS011;18267;52.234;7.444;2023-06-22T08:45:05;15.90;;;11.30;;
31660;SDS011;18267;52.234;7.444;2023-06-22T08:47:32;18.45;;;11.30;;
31660;SDS011;18267;52.234;7.444;2023-06-22T08:49:57;14.40;;;11.02;;
31660;SDS011;18267;52.234;7.444;2023-06-22T08:52:23;19.33;;;11.02;;
31660;SDS011;18267;52.234;7.444;2023-06-22T08:54:48;14.68;;;11.15;;
31660;SDS011;18267;52.234;7.444;2023-06-22T08:57:14;19.85;;;10.88;;
31660;SDS011;18267;52.234;7.444;2023-06-22T08:59:41;16.73;;;10.48;;
31660;SDS011;18267;52.234;7.444;2023-06-22T09:02:07;20.85;;;10.98;;
31660;SDS011;18267;52.234;7.444;2023-06-22T09:04:32;13.02;;;9.88;;
31660;SDS011;18267;52.234;7.444;2023-06-22T09:06:59;16.02;;;10.95;;
31660;SDS011;18267;52.234;7.444;2023-06-22T09:09:25;16.52;;;10.18;;
31660;SDS011;18267;52.234;7.444;2023-06-22T09:11:51;18.60;;;10.95;;
31660;SDS011;18267;52.234;7.444;2023-06-22T09:14:16;18.02;;;11.48;;
31660;SDS011;18267;52.234;7.444;2023-06-22T09:16:42;17.42;;;11.38;;
31660;SDS011;18267;52.234;7.444;2023-06-22T09:19:08;16.08;;;11.07;;
31660;SDS011;18267;52.234;7.444;2023-06-22T09:21:33;13.90;;;10.93;;
31660;SDS011;18267;52.234;7.444;2023-06-22T09:23:59;19.98;;;11.57;;
31660;SDS011;18267;52.234;7.444;2023-06-22T09:26:24;19.08;;;12.07;;
31660;SDS011;18267;52.234;7.444;2023-06-22T09:28:50;18.30;;;11.88;;
31660;SDS011;18267;52.234;7.444;2023-06-22T09:31:16;13.38;;;11.18;;
31660;SDS011;18267;52.234;7.444;2023-06-22T09:33:42;16.98;;;11.55;;
31660;SDS011;18267;52.234;7.444;2023-06-22T09:36:07;17.05;;;11.30;;
31660;SDS011;18267;52.234;7.444;2023-06-22T09:38:36;17.08;;;10.57;;
31660;SDS011;18267;52.234;7.444;2023-06-22T09:41:02;15.85;;;12.13;;
31660;SDS011;18267;52.234;7.444;2023-06-22T09:43:29;20.40;;;11.35;;
31660;SDS011;18267;52.234;7.444;2023-06-22T09:45:57;19.58;;;11.63;;
31660;SDS011;18267;52.234;7.444;2023-06-22T09:48:22;17.58;;;12.85;;
31660;SDS011;18267;52.234;7.444;2023-06-22T09:50:48;17.10;;;11.68;;
31660;SDS011;18267;52.234;7.444;2023-06-22T09:53:13;15.30;;;11.35;;
31660;SDS011;18267;52.234;7.444;2023-06-22T09:55:39;17.15;;;11.80;;
31660;SDS011;18267;52.234;7.444;2023-06-22T09:58:04;15.07;;;11.10;;
31660;SDS011;18267;52.234;7.444;2023-06-22T10:00:30;21.45;;;12.27;;
31660;SDS011;18267;52.234;7.444;2023-06-22T10:02:55;15.13;;;11.60;;
31660;SDS011;18267;52.234;7.444;2023-06-22T10:05:22;19.50;;;12.50;;
31660;SDS011;18267;52.234;7.444;2023-06-22T10:07:48;18.77;;;12.35;;
31660;SDS011;18267;52.234;7.444;2023-06-22T10:10:14;16.38;;;11.65;;
31660;SDS011;18267;52.234;7.444;2023-06-22T10:12:45;21.48;;;12.18;;
31660;SDS011;18267;52.234;7.444;2023-06-22T10:15:12;20.55;;;12.90;;
31660;SDS011;18267;52.234;7.444;2023-06-22T10:17:38;18.10;;;12.20;;
31660;SDS011;18267;52.234;7.444;2023-06-22T10:20:04;16.60;;;12.15;;
31660;SDS011;18267;52.234;7.444;2023-06-22T10:22:38;17.40;;;11.93;;
31660;SDS011;18267;52.234;7.444;2023-06-22T10:25:07;15.68;;;11.57;;
31660;SDS011;18267;52.234;7.444;2023-06-22T10:27:34;19.17;;;11.88;;
31660;SDS011;18267;52.234;7.444;2023-06-22T10:30:00;14.40;;;11.05;;
31660;SDS011;18267;52.234;7.444;2023-06-22T10:32:25;17.25;;;11.60;;
31660;SDS011;18267;52.234;7.444;2023-06-22T10:34:52;14.68;;;11.32;;
31660;SDS011;18267;52.234;7.444;2023-06-22T10:37:18;18.70;;;12.88;;
31660;SDS011;18267;52.234;7.444;2023-06-22T10:39:43;20.33;;;11.93;;
31660;SDS011;18267;52.234;7.444;2023-06-22T10:42:09;17.20;;;11.30;;
31660;SDS011;18267;52.234;7.444;2023-06-22T10:44:35;17.85;;;12.93;;
31660;SDS011;18267;52.234;7.444;2023-06-22T10:47:00;16.70;;;12.73;;
31660;SDS011;18267;52.234;7.444;2023-06-22T10:49:26;14.32;;;10.80;;
31660;SDS011;18267;52.234;7.444;2023-06-22T10:51:51;15.85;;;12.20;;
31660;SDS011;18267;52.234;7.444;2023-06-22T10:54:17;16.73;;;12.38;;
31660;SDS011;18267;52.234;7.444;2023-06-22T10:56:44;18.05;;;12.25;;
31660;SDS011;18267;52.234;7.444;2023-06-22T10:59:09;16.08;;;12.80;;
31660;SDS011;18267;52.234;7.444;2023-06-22T11:01:35;16.90;;;12.25;;
31660;SDS011;18267;52.234;7.444;2023-06-22T11:04:01;15.70;;;12.05;;
31660;SDS011;18267;52.234;7.444;2023-06-22T11:06:27;20.75;;;12.98;;
31660;SDS011;18267;52.234;7.444;2023-06-22T11:08:53;16.23;;;12.13;;
31660;SDS011;18267;52.234;7.444;2023-06-22T11:11:18;16.38;;;12.07;;
31660;SDS011;18267;52.234;7.444;2023-06-22T11:13:44;16.75;;;12.45;;
31660;SDS011;18267;52.234;7.444;2023-06-22T11:16:10;20.17;;;11.63;;
31660;SDS011;18267;52.234;7.444;2023-06-22T11:18:35;20.23;;;11.73;;
31660;SDS011;18267;52.234;7.444;2023-06-22T11:21:01;16.27;;;12.20;;
31660;SDS011;18267;52.234;7.444;2023-06-22T11:23:26;17.95;;;12.43;;
31660;SDS011;18267;52.234;7.444;2023-06-22T11:25:53;17.90;;;11.63;;
31660;SDS011;18267;52.234;7.444;2023-06-22T11:28:19;14.65;;;10.77;;
31660;SDS011;18267;52.234;7.444;2023-06-22T11:30:45;14.98;;;12.35;;
31660;SDS011;18267;52.234;7.444;2023-06-22T11:33:10;16.80;;;12.00;;
31660;SDS011;18267;52.234;7.444;2023-06-22T11:35:36;20.73;;;11.57;;
31660;SDS011;18267;52.234;7.444;2023-06-22T11:38:01;14.88;;;11.02;;
31660;SDS011;18267;52.234;7.444;2023-06-22T11:40:28;16.30;;;11.32;;
31660;SDS011;18267;52.234;7.444;2023-06-22T11:42:54;18.30;;;12.07;;
31660;SDS011;18267;52.234;7.444;2023-06-22T11:45:19;16.70;;;10.70;;
31660;SDS011;18267;52.234;7.444;2023-06-22T11:47:45;16.45;;;10.25;;
31660;SDS011;18267;52.234;7.444;2023-06-22T11:50:11;18.88;;;11.43;;
31660;SDS011;18267;52.234;7.444;2023-06-22T11:52:36;14.15;;;10.32;;
31660;SDS011;18267;52.234;7.444;2023-06-22T11:55:02;13.02;;;10.30;;
31660;SDS011;18267;52.234;7.444;2023-06-22T11:57:30;18.80;;;10.95;;
31660;SDS011;18267;52.234;7.444;2023-06-22T11:59:58;12.82;;;10.82;;
31660;SDS011;18267;52.234;7.444;2023-06-22T12:02:23;17.05;;;10.75;;
31660;SDS011;18267;52.234;7.444;2023-06-22T12:04:49;15.68;;;11.07;;
31660;SDS011;18267;52.234;7.444;2023-06-22T12:07:17;16.30;;;11.13;;
31660;SDS011;18267;52.234;7.444;2023-06-22T12:09:43;17.27;;;11.32;;
31660;SDS011;18267;52.234;7.444;2023-06-22T12:12:09;26.08;;;11.27;;
31660;SDS011;18267;52.234;7.444;2023-06-22T12:14:34;12.27;;;9.90;;
31660;SDS011;18267;52.234;7.444;2023-06-22T12:17:00;11.85;;;10.02;;
31660;SDS011;18267;52.234;7.444;2023-06-22T12:19:25;14.02;;;10.15;;
31660;SDS011;18267;52.234;7.444;2023-06-22T12:21:51;11.68;;;10.10;;
31660;SDS011;18267;52.234;7.444;2023-06-22T12:24:16;15.57;;;11.02;;
31660;SDS011;18267;52.234;7.444;2023-06-22T12:26:42;15.23;;;10.82;;
31660;SDS011;18267;52.234;7.444;2023-06-22T12:29:08;15.18;;;10.70;;
31660;SDS011;18267;52.234;7.444;2023-06-22T12:31:35;14.50;;;10.45;;
31660;SDS011;18267;52.234;7.444;2023-06-22T12:34:01;15.48;;;9.32;;
31660;SDS011;18267;52.234;7.444;2023-06-22T12:36:27;17.73;;;9.50;;
31660;SDS011;18267;52.234;7.444;2023-06-22T12:38:55;13.27;;;9.75;;
31660;SDS011;18267;52.234;7.444;2023-06-22T12:41:21;14.93;;;9.02;;
31660;SDS011;18267;52.234;7.444;2023-06-22T12:43:47;15.57;;;9.77;;
31660;SDS011;18267;52.234;7.444;2023-06-22T12:46:13;12.00;;;9.23;;
31660;SDS011;18267;52.234;7.444;2023-06-22T12:48:38;13.85;;;9.70;;
31660;SDS011;18267;52.234;7.444;2023-06-22T12:51:07;12.27;;;9.20;;
31660;SDS011;18267;52.234;7.444;2023-06-22T12:53:34;20.40;;;10.27;;
31660;SDS011;18267;52.234;7.444;2023-06-22T12:55:59;10.48;;;9.18;;
31660;SDS011;18267;52.234;7.444;2023-06-22T12:58:25;11.40;;;9.15;;
31660;SDS011;18267;52.234;7.444;2023-06-22T13:00:50;14.38;;;8.63;;
31660;SDS011;18267;52.234;7.444;2023-06-22T13:03:16;13.13;;;8.77;;
31660;SDS011;18267;52.234;7.444;2023-06-22T13:05:41;15.70;;;9.88;;
31660;SDS011;18267;52.234;7.444;2023-06-22T13:08:07;12.93;;;9.55;;
31660;SDS011;18267;52.234;7.444;2023-06-22T13:10:33;17.00;;;10.10;;
31660;SDS011;18267;52.234;7.444;2023-06-22T13:12:59;13.77;;;9.65;;
31660;SDS011;18267;52.234;7.444;2023-06-22T13:15:26;14.70;;;10.93;;
31660;SDS011;18267;52.234;7.444;2023-06-22T13:17:55;14.93;;;10.30;;
31660;SDS011;18267;52.234;7.444;2023-06-22T13:20:21;13.95;;;10.20;;
31660;SDS011;18267;52.234;7.444;2023-06-22T13:22:46;13.18;;;10.90;;
31660;SDS011;18267;52.234;7.444;2023-06-22T13:25:12;15.38;;;10.45;;
31660;SDS011;18267;52.234;7.444;2023-06-22T13:27:39;13.23;;;10.35;;
31660;SDS011;18267;52.234;7.444;2023-06-22T13:30:08;12.82;;;10.50;;
31660;SDS011;18267;52.234;7.444;2023-06-22T13:32:34;16.55;;;11.38;;
31660;SDS011;18267;52.234;7.444;2023-06-22T13:34:59;18.33;;;11.98;;
31660;SDS011;18267;52.234;7.444;2023-06-22T13:37:25;18.05;;;11.30;;
31660;SDS011;18267;52.234;7.444;2023-06-22T13:39:51;20.23;;;11.75;;
31660;SDS011;18267;52.234;7.444;2023-06-22T13:42:17;20.83;;;11.95;;
31660;SDS011;18267;52.234;7.444;2023-06-22T13:44:42;22.75;;;12.93;;
31660;SDS011;18267;52.234;7.444;2023-06-22T13:47:08;19.95;;;13.48;;
31660;SDS011;18267;52.234;7.444;2023-06-22T13:49:34;26.58;;;12.98;;
31660;SDS011;18267;52.234;7.444;2023-06-22T13:51:59;16.85;;;13.45;;
31660;SDS011;18267;52.234;7.444;2023-06-22T13:54:25;19.00;;;13.65;;
31660;SDS011;18267;52.234;7.444;2023-06-22T13:56:51;21.17;;;15.35;;
31660;SDS011;18267;52.234;7.444;2023-06-22T13:59:16;21.33;;;14.45;;
31660;SDS011;18267;52.234;7.444;2023-06-22T14:01:42;21.85;;;15.10;;
31660;SDS011;18267;52.234;7.444;2023-06-22T14:04:08;20.05;;;14.50;;
31660;SDS011;18267;52.234;7.444;2023-06-22T14:06:34;21.85;;;15.45;;
31660;SDS011;18267;52.234;7.444;2023-06-22T14:08:59;21.02;;;15.20;;
31660;SDS011;18267;52.234;7.444;2023-06-22T14:11:25;23.27;;;15.93;;
31660;SDS011;18267;52.234;7.444;2023-06-22T14:13:50;24.60;;;17.13;;
31660;SDS011;18267;52.234;7.444;2023-06-22T14:16:16;28.70;;;17.23;;
31660;SDS011;18267;52.234;7.444;2023-06-22T14:18:42;28.33;;;17.38;;
31660;SDS011;18267;52.234;7.444;2023-06-22T14:21:07;25.90;;;16.80;;